Current Weather

Sydney Intl

Sydney Intl, Australia (YSSY)

Report from: Friday, May 20, 2022 4:00 AM AEST
Current time: Friday, May 20, 2022 4:37 AM AEST

Nearby weather
Weather history
Weather forecast

Present weatherLight rain showers
Temperature15.0°C (59.0°F)
Dew point6.0°C (42.8°F)
Winds 7 kts (3.6 m/s, 8.1 mph) West-Southwest (250°)
Visibility6.2 mi. (10 km)
Clouds Scattered clouds 3,800 ft. (1,158 m)
Ceiling: Broken clouds 6,000 ft. (1,829 m)
Altimeter30.39 in.Hg (1029 mB)
Relative humidity55 %
Density altitude-393 ft. (-120 m)
Flight conditions Visual Meteorological Conditions
Raw dataYSSY 191800Z 25007KT 9999 -SHRA SCT038 BKN060 15/06 Q1029
An error has occurred. This application may no longer respond until reloaded. Reload 🗙